sensor_id;sensor_type;location;lat;lon;timestamp;temperature;humidity
65078;DHT22;51672;51.230;-2.322;2022-07-03T00:01:47;10.00;99.90
65078;DHT22;51672;51.230;-2.322;2022-07-03T00:05:29;9.90;99.90
65078;DHT22;51672;51.230;-2.322;2022-07-03T00:09:12;9.90;99.90
65078;DHT22;51672;51.230;-2.322;2022-07-03T00:12:54;9.90;99.90
65078;DHT22;51672;51.230;-2.322;2022-07-03T00:16:36;9.90;99.90
65078;DHT22;51672;51.230;-2.322;2022-07-03T00:20:19;9.90;99.90
65078;DHT22;51672;51.230;-2.322;2022-07-03T00:24:08;9.90;99.90
65078;DHT22;51672;51.230;-2.322;2022-07-03T00:27:50;9.90;99.90
65078;DHT22;51672;51.230;-2.322;2022-07-03T00:31:32;10.00;99.90
65078;DHT22;51672;51.230;-2.322;2022-07-03T00:35:17;10.00;99.90
65078;DHT22;51672;51.230;-2.322;2022-07-03T00:38:59;10.00;99.90
65078;DHT22;51672;51.230;-2.322;2022-07-03T00:42:41;10.00;99.90
65078;DHT22;51672;51.230;-2.322;2022-07-03T00:46:27;10.00;99.90
65078;DHT22;51672;51.230;-2.322;2022-07-03T00:50:09;10.00;99.90
65078;DHT22;51672;51.230;-2.322;2022-07-03T00:53:57;10.00;99.90
65078;DHT22;51672;51.230;-2.322;2022-07-03T00:57:44;10.00;99.90
65078;DHT22;51672;51.230;-2.322;2022-07-03T01:01:32;10.00;99.90
65078;DHT22;51672;51.230;-2.322;2022-07-03T01:05:19;10.00;99.90
65078;DHT22;51672;51.230;-2.322;2022-07-03T01:09:07;10.00;99.90
65078;DHT22;51672;51.230;-2.322;2022-07-03T01:12:56;9.90;99.90
65078;DHT22;51672;51.230;-2.322;2022-07-03T01:20:38;9.90;99.90
65078;DHT22;51672;51.230;-2.322;2022-07-03T01:28:32;9.80;99.90
65078;DHT22;51672;51.230;-2.322;2022-07-03T01:32:14;9.90;99.90
65078;DHT22;51672;51.230;-2.322;2022-07-03T01:36:07;9.80;99.90
65078;DHT22;51672;51.230;-2.322;2022-07-03T01:39:53;9.80;99.90
65078;DHT22;51672;51.230;-2.322;2022-07-03T01:43:49;9.80;99.90
65078;DHT22;51672;51.230;-2.322;2022-07-03T01:47:31;9.90;99.90
65078;DHT22;51672;51.230;-2.322;2022-07-03T01:51:16;9.90;99.90
65078;DHT22;51672;51.230;-2.322;2022-07-03T01:55:00;10.00;99.90
65078;DHT22;51672;51.230;-2.322;2022-07-03T01:58:43;10.20;99.90
65078;DHT22;51672;51.230;-2.322;2022-07-03T02:02:32;10.30;99.90
65078;DHT22;51672;51.230;-2.322;2022-07-03T02:06:28;10.40;99.90
65078;DHT22;51672;51.230;-2.322;2022-07-03T02:10:16;10.50;99.90
65078;DHT22;51672;51.230;-2.322;2022-07-03T02:17:52;10.60;99.90
65078;DHT22;51672;51.230;-2.322;2022-07-03T02:21:34;10.60;99.90
65078;DHT22;51672;51.230;-2.322;2022-07-03T02:25:22;10.60;99.90
65078;DHT22;51672;51.230;-2.322;2022-07-03T02:29:07;10.70;99.90
65078;DHT22;51672;51.230;-2.322;2022-07-03T02:32:52;10.70;99.90
65078;DHT22;51672;51.230;-2.322;2022-07-03T02:36:35;10.70;99.90
65078;DHT22;51672;51.230;-2.322;2022-07-03T02:40:27;10.60;99.90
65078;DHT22;51672;51.230;-2.322;2022-07-03T02:44:45;10.70;99.90
65078;DHT22;51672;51.230;-2.322;2022-07-03T02:48:33;10.80;99.90
65078;DHT22;51672;51.230;-2.322;2022-07-03T02:56:53;10.90;99.90
65078;DHT22;51672;51.230;-2.322;2022-07-03T03:00:35;10.90;99.90
65078;DHT22;51672;51.230;-2.322;2022-07-03T03:04:30;10.90;99.90
65078;DHT22;51672;51.230;-2.322;2022-07-03T03:12:12;10.90;99.90
65078;DHT22;51672;51.230;-2.322;2022-07-03T03:16:11;10.80;99.90
65078;DHT22;51672;51.230;-2.322;2022-07-03T03:19:56;10.80;99.90
65078;DHT22;51672;51.230;-2.322;2022-07-03T03:23:43;10.70;99.90
65078;DHT22;51672;51.230;-2.322;2022-07-03T03:27:27;10.70;99.90
65078;DHT22;51672;51.230;-2.322;2022-07-03T03:31:09;10.70;99.90
65078;DHT22;51672;51.230;-2.322;2022-07-03T03:34:51;10.80;99.90
65078;DHT22;51672;51.230;-2.322;2022-07-03T03:38:34;10.80;99.90
65078;DHT22;51672;51.230;-2.322;2022-07-03T03:42:16;10.80;99.90
65078;DHT22;51672;51.230;-2.322;2022-07-03T03:45:59;10.90;99.90
65078;DHT22;51672;51.230;-2.322;2022-07-03T03:49:41;11.00;99.90
65078;DHT22;51672;51.230;-2.322;2022-07-03T03:53:27;11.10;99.90
65078;DHT22;51672;51.230;-2.322;2022-07-03T03:57:20;11.20;99.90
65078;DHT22;51672;51.230;-2.322;2022-07-03T04:01:03;11.20;99.90
65078;DHT22;51672;51.230;-2.322;2022-07-03T04:04:46;11.30;99.90
65078;DHT22;51672;51.230;-2.322;2022-07-03T04:08:29;11.40;99.90
65078;DHT22;51672;51.230;-2.322;2022-07-03T04:12:11;11.50;99.90
65078;DHT22;51672;51.230;-2.322;2022-07-03T04:15:53;11.50;99.90
65078;DHT22;51672;51.230;-2.322;2022-07-03T04:19:36;11.60;99.90
65078;DHT22;51672;51.230;-2.322;2022-07-03T04:23:18;11.60;99.90
65078;DHT22;51672;51.230;-2.322;2022-07-03T04:27:01;11.70;99.90
65078;DHT22;51672;51.230;-2.322;2022-07-03T04:30:43;11.80;99.90
65078;DHT22;51672;51.230;-2.322;2022-07-03T04:34:25;11.90;99.90
65078;DHT22;51672;51.230;-2.322;2022-07-03T04:38:07;12.00;99.90
65078;DHT22;51672;51.230;-2.322;2022-07-03T04:41:49;12.10;99.90
65078;DHT22;51672;51.230;-2.322;2022-07-03T04:45:31;12.10;99.90
65078;DHT22;51672;51.230;-2.322;2022-07-03T04:49:13;12.20;99.90
65078;DHT22;51672;51.230;-2.322;2022-07-03T04:52:55;12.20;99.90
65078;DHT22;51672;51.230;-2.322;2022-07-03T04:56:37;12.30;99.90
65078;DHT22;51672;51.230;-2.322;2022-07-03T05:00:19;12.40;99.90
65078;DHT22;51672;51.230;-2.322;2022-07-03T05:04:04;12.50;99.90
65078;DHT22;51672;51.230;-2.322;2022-07-03T05:07:46;12.60;99.90
65078;DHT22;51672;51.230;-2.322;2022-07-03T05:11:28;12.70;99.90
65078;DHT22;51672;51.230;-2.322;2022-07-03T05:15:10;12.70;99.90
65078;DHT22;51672;51.230;-2.322;2022-07-03T05:18:52;12.80;99.90
65078;DHT22;51672;51.230;-2.322;2022-07-03T05:22:34;12.90;99.90
65078;DHT22;51672;51.230;-2.322;2022-07-03T05:26:16;12.90;99.90
65078;DHT22;51672;51.230;-2.322;2022-07-03T05:29:58;13.00;99.90
65078;DHT22;51672;51.230;-2.322;2022-07-03T05:33:40;13.00;99.90
65078;DHT22;51672;51.230;-2.322;2022-07-03T05:37:22;13.00;99.90
65078;DHT22;51672;51.230;-2.322;2022-07-03T05:41:04;13.10;99.90
65078;DHT22;51672;51.230;-2.322;2022-07-03T05:44:46;13.20;99.90
65078;DHT22;51672;51.230;-2.322;2022-07-03T05:48:29;13.20;99.90
65078;DHT22;51672;51.230;-2.322;2022-07-03T05:52:11;13.30;99.90
65078;DHT22;51672;51.230;-2.322;2022-07-03T05:55:53;13.40;99.90
65078;DHT22;51672;51.230;-2.322;2022-07-03T05:59:35;13.50;99.90
65078;DHT22;51672;51.230;-2.322;2022-07-03T06:03:17;13.60;99.90
65078;DHT22;51672;51.230;-2.322;2022-07-03T06:06:59;13.70;99.90
65078;DHT22;51672;51.230;-2.322;2022-07-03T06:10:41;13.90;99.90
65078;DHT22;51672;51.230;-2.322;2022-07-03T06:14:23;14.10;99.90
65078;DHT22;51672;51.230;-2.322;2022-07-03T06:18:05;14.40;99.90
65078;DHT22;51672;51.230;-2.322;2022-07-03T06:21:47;14.70;99.90
65078;DHT22;51672;51.230;-2.322;2022-07-03T06:25:29;14.90;99.90
65078;DHT22;51672;51.230;-2.322;2022-07-03T06:29:11;15.20;99.90
65078;DHT22;51672;51.230;-2.322;2022-07-03T06:32:53;15.40;99.90
65078;DHT22;51672;51.230;-2.322;2022-07-03T06:36:41;15.80;99.90
65078;DHT22;51672;51.230;-2.322;2022-07-03T06:40:23;16.50;99.90
65078;DHT22;51672;51.230;-2.322;2022-07-03T06:44:07;17.40;99.90
65078;DHT22;51672;51.230;-2.322;2022-07-03T06:47:49;18.10;99.90
65078;DHT22;51672;51.230;-2.322;2022-07-03T06:51:39;18.70;99.90
65078;DHT22;51672;51.230;-2.322;2022-07-03T06:55:41;19.20;99.90
65078;DHT22;51672;51.230;-2.322;2022-07-03T06:59:33;19.50;99.90
65078;DHT22;51672;51.230;-2.322;2022-07-03T07:03:15;19.80;99.80
65078;DHT22;51672;51.230;-2.322;2022-07-03T07:06:57;20.60;99.00
65078;DHT22;51672;51.230;-2.322;2022-07-03T07:10:48;21.30;96.80
65078;DHT22;51672;51.230;-2.322;2022-07-03T07:14:30;22.00;96.70
65078;DHT22;51672;51.230;-2.322;2022-07-03T07:18:12;23.00;93.80
65078;DHT22;51672;51.230;-2.322;2022-07-03T07:22:03;23.80;92.60
65078;DHT22;51672;51.230;-2.322;2022-07-03T07:29:58;25.20;91.40
65078;DHT22;51672;51.230;-2.322;2022-07-03T07:33:40;25.10;86.20
65078;DHT22;51672;51.230;-2.322;2022-07-03T07:37:23;24.50;85.10
65078;DHT22;51672;51.230;-2.322;2022-07-03T07:41:12;23.90;89.10
65078;DHT22;51672;51.230;-2.322;2022-07-03T07:45:00;23.30;91.10
65078;DHT22;51672;51.230;-2.322;2022-07-03T07:48:43;23.30;90.50
65078;DHT22;51672;51.230;-2.322;2022-07-03T07:52:28;23.90;88.80
65078;DHT22;51672;51.230;-2.322;2022-07-03T07:56:11;25.40;83.50
65078;DHT22;51672;51.230;-2.322;2022-07-03T07:59:53;27.00;78.30
65078;DHT22;51672;51.230;-2.322;2022-07-03T08:03:45;27.90;73.40
65078;DHT22;51672;51.230;-2.322;2022-07-03T08:07:45;29.20;76.80
65078;DHT22;51672;51.230;-2.322;2022-07-03T08:11:37;30.30;65.50
65078;DHT22;51672;51.230;-2.322;2022-07-03T08:15:19;30.90;68.10
65078;DHT22;51672;51.230;-2.322;2022-07-03T08:19:01;30.60;63.30
65078;DHT22;51672;51.230;-2.322;2022-07-03T08:22:52;30.70;61.30
65078;DHT22;51672;51.230;-2.322;2022-07-03T08:26:34;31.60;64.90
65078;DHT22;51672;51.230;-2.322;2022-07-03T08:30:16;32.70;56.40
65078;DHT22;51672;51.230;-2.322;2022-07-03T08:34:10;33.90;51.60
65078;DHT22;51672;51.230;-2.322;2022-07-03T08:37:55;34.40;52.60
65078;DHT22;51672;51.230;-2.322;2022-07-03T08:41:40;33.50;49.30
65078;DHT22;51672;51.230;-2.322;2022-07-03T08:45:25;32.40;52.50
65078;DHT22;51672;51.230;-2.322;2022-07-03T08:49:09;31.90;53.40
65078;DHT22;51672;51.230;-2.322;2022-07-03T08:52:51;31.60;53.80
65078;DHT22;51672;51.230;-2.322;2022-07-03T08:56:39;31.20;54.60
65078;DHT22;51672;51.230;-2.322;2022-07-03T09:00:22;30.60;56.20
65078;DHT22;51672;51.230;-2.322;2022-07-03T09:04:04;29.70;55.30
65078;DHT22;51672;51.230;-2.322;2022-07-03T09:07:57;29.50;55.60
65078;DHT22;51672;51.230;-2.322;2022-07-03T09:11:41;29.70;59.10
65078;DHT22;51672;51.230;-2.322;2022-07-03T09:15:23;29.30;56.30
65078;DHT22;51672;51.230;-2.322;2022-07-03T09:19:12;29.90;54.20
65078;DHT22;51672;51.230;-2.322;2022-07-03T09:22:54;30.00;54.50
65078;DHT22;51672;51.230;-2.322;2022-07-03T09:31:02;32.10;55.30
65078;DHT22;51672;51.230;-2.322;2022-07-03T09:34:51;34.00;47.60
65078;DHT22;51672;51.230;-2.322;2022-07-03T09:38:59;35.30;46.70
65078;DHT22;51672;51.230;-2.322;2022-07-03T09:51:25;33.70;49.70
65078;DHT22;51672;51.230;-2.322;2022-07-03T09:55:17;32.00;49.30
65078;DHT22;51672;51.230;-2.322;2022-07-03T09:59:18;30.70;52.60
65078;DHT22;51672;51.230;-2.322;2022-07-03T10:03:08;29.60;53.70
65078;DHT22;51672;51.230;-2.322;2022-07-03T10:07:09;28.80;56.50
65078;DHT22;51672;51.230;-2.322;2022-07-03T10:11:00;28.20;55.10
65078;DHT22;51672;51.230;-2.322;2022-07-03T10:14:46;27.90;57.50
65078;DHT22;51672;51.230;-2.322;2022-07-03T10:18:30;27.60;58.80
65078;DHT22;51672;51.230;-2.322;2022-07-03T10:27:09;27.50;60.60
65078;DHT22;51672;51.230;-2.322;2022-07-03T10:30:51;27.60;61.40
65078;DHT22;51672;51.230;-2.322;2022-07-03T10:34:40;27.60;57.50
65078;DHT22;51672;51.230;-2.322;2022-07-03T10:38:46;27.50;57.80
65078;DHT22;51672;51.230;-2.322;2022-07-03T10:42:35;27.40;58.90
65078;DHT22;51672;51.230;-2.322;2022-07-03T10:47:04;27.30;57.20
65078;DHT22;51672;51.230;-2.322;2022-07-03T10:51:12;27.20;57.20
65078;DHT22;51672;51.230;-2.322;2022-07-03T10:54:56;27.20;60.90
65078;DHT22;51672;51.230;-2.322;2022-07-03T11:02:51;26.20;67.60
65078;DHT22;51672;51.230;-2.322;2022-07-03T11:10:43;24.20;69.50
65078;DHT22;51672;51.230;-2.322;2022-07-03T11:14:30;23.70;73.30
65078;DHT22;51672;51.230;-2.322;2022-07-03T11:18:15;23.50;73.50
65078;DHT22;51672;51.230;-2.322;2022-07-03T11:26:28;23.10;73.10
65078;DHT22;51672;51.230;-2.322;2022-07-03T11:30:17;23.10;74.20
65078;DHT22;51672;51.230;-2.322;2022-07-03T11:34:01;23.20;73.50
65078;DHT22;51672;51.230;-2.322;2022-07-03T11:37:45;23.50;74.30
65078;DHT22;51672;51.230;-2.322;2022-07-03T11:41:43;23.70;75.10
65078;DHT22;51672;51.230;-2.322;2022-07-03T11:46:00;23.90;73.20
65078;DHT22;51672;51.230;-2.322;2022-07-03T11:49:49;24.00;73.90
65078;DHT22;51672;51.230;-2.322;2022-07-03T11:53:33;24.00;73.00
65078;DHT22;51672;51.230;-2.322;2022-07-03T11:57:35;24.00;72.70
65078;DHT22;51672;51.230;-2.322;2022-07-03T12:05:26;24.40;73.90
65078;DHT22;51672;51.230;-2.322;2022-07-03T12:13:48;25.30;70.00
65078;DHT22;51672;51.230;-2.322;2022-07-03T12:17:49;25.20;67.70
65078;DHT22;51672;51.230;-2.322;2022-07-03T12:21:40;25.10;66.50
65078;DHT22;51672;51.230;-2.322;2022-07-03T12:29:15;24.60;65.80
65078;DHT22;51672;51.230;-2.322;2022-07-03T12:32:58;24.50;66.40
65078;DHT22;51672;51.230;-2.322;2022-07-03T12:36:59;24.60;65.00
65078;DHT22;51672;51.230;-2.322;2022-07-03T12:45:02;24.40;64.80
65078;DHT22;51672;51.230;-2.322;2022-07-03T12:52:54;24.10;65.60
65078;DHT22;51672;51.230;-2.322;2022-07-03T12:56:37;24.00;67.60
65078;DHT22;51672;51.230;-2.322;2022-07-03T13:00:44;24.10;63.20
65078;DHT22;51672;51.230;-2.322;2022-07-03T13:08:33;24.40;64.10
65078;DHT22;51672;51.230;-2.322;2022-07-03T13:12:22;24.50;61.20
65078;DHT22;51672;51.230;-2.322;2022-07-03T13:16:23;24.40;63.00
65078;DHT22;51672;51.230;-2.322;2022-07-03T13:20:14;24.20;64.40
65078;DHT22;51672;51.230;-2.322;2022-07-03T13:27:42;24.00;63.10
65078;DHT22;51672;51.230;-2.322;2022-07-03T13:31:30;24.00;62.10
65078;DHT22;51672;51.230;-2.322;2022-07-03T13:35:16;23.90;62.30
65078;DHT22;51672;51.230;-2.322;2022-07-03T13:38:59;23.80;62.30
65078;DHT22;51672;51.230;-2.322;2022-07-03T13:42:48;23.70;62.30
65078;DHT22;51672;51.230;-2.322;2022-07-03T13:46:48;23.70;63.10
65078;DHT22;51672;51.230;-2.322;2022-07-03T13:50:41;23.60;63.40
65078;DHT22;51672;51.230;-2.322;2022-07-03T13:54:42;23.70;64.20
65078;DHT22;51672;51.230;-2.322;2022-07-03T13:58:33;23.70;63.30
65078;DHT22;51672;51.230;-2.322;2022-07-03T14:02:19;23.70;64.20
65078;DHT22;51672;51.230;-2.322;2022-07-03T14:06:01;23.60;64.40
65078;DHT22;51672;51.230;-2.322;2022-07-03T14:14:17;23.90;65.00
65078;DHT22;51672;51.230;-2.322;2022-07-03T14:18:05;23.90;63.40
65078;DHT22;51672;51.230;-2.322;2022-07-03T14:21:47;23.80;63.50
65078;DHT22;51672;51.230;-2.322;2022-07-03T14:25:35;23.60;64.80
65078;DHT22;51672;51.230;-2.322;2022-07-03T14:29:36;23.50;64.50
65078;DHT22;51672;51.230;-2.322;2022-07-03T14:33:53;23.30;64.20
65078;DHT22;51672;51.230;-2.322;2022-07-03T14:37:35;23.00;65.90
65078;DHT22;51672;51.230;-2.322;2022-07-03T14:41:21;22.80;66.00
65078;DHT22;51672;51.230;-2.322;2022-07-03T14:45:07;22.70;67.30
65078;DHT22;51672;51.230;-2.322;2022-07-03T14:48:49;22.70;66.90
65078;DHT22;51672;51.230;-2.322;2022-07-03T14:52:37;22.60;66.60
65078;DHT22;51672;51.230;-2.322;2022-07-03T15:00:04;22.50;67.10
65078;DHT22;51672;51.230;-2.322;2022-07-03T15:12:26;22.70;64.10
65078;DHT22;51672;51.230;-2.322;2022-07-03T15:16:16;22.80;64.40
65078;DHT22;51672;51.230;-2.322;2022-07-03T15:20:03;22.70;64.30
65078;DHT22;51672;51.230;-2.322;2022-07-03T15:23:46;22.60;64.50
65078;DHT22;51672;51.230;-2.322;2022-07-03T15:27:33;22.50;64.90
65078;DHT22;51672;51.230;-2.322;2022-07-03T15:34:58;22.50;66.50
65078;DHT22;51672;51.230;-2.322;2022-07-03T15:51:50;23.30;64.70
65078;DHT22;51672;51.230;-2.322;2022-07-03T15:55:42;23.40;65.40
65078;DHT22;51672;51.230;-2.322;2022-07-03T15:59:47;23.40;63.50
65078;DHT22;51672;51.230;-2.322;2022-07-03T16:08:27;23.20;63.90
65078;DHT22;51672;51.230;-2.322;2022-07-03T16:12:10;23.10;64.20
65078;DHT22;51672;51.230;-2.322;2022-07-03T16:16:24;23.00;63.70
65078;DHT22;51672;51.230;-2.322;2022-07-03T16:20:08;22.90;64.40
65078;DHT22;51672;51.230;-2.322;2022-07-03T16:23:51;22.70;64.20
65078;DHT22;51672;51.230;-2.322;2022-07-03T16:31:32;22.40;65.40
65078;DHT22;51672;51.230;-2.322;2022-07-03T16:39:14;22.20;67.20
65078;DHT22;51672;51.230;-2.322;2022-07-03T16:47:05;22.10;67.40
65078;DHT22;51672;51.230;-2.322;2022-07-03T16:54:58;21.90;67.80
65078;DHT22;51672;51.230;-2.322;2022-07-03T16:58:49;21.80;68.40
65078;DHT22;51672;51.230;-2.322;2022-07-03T17:02:50;21.60;68.40
65078;DHT22;51672;51.230;-2.322;2022-07-03T17:06:42;21.40;69.30
65078;DHT22;51672;51.230;-2.322;2022-07-03T17:10:46;21.20;69.90
65078;DHT22;51672;51.230;-2.322;2022-07-03T17:14:34;21.00;70.50
65078;DHT22;51672;51.230;-2.322;2022-07-03T17:18:47;20.80;70.30
65078;DHT22;51672;51.230;-2.322;2022-07-03T17:22:54;20.60;70.70
65078;DHT22;51672;51.230;-2.322;2022-07-03T17:26:41;20.50;71.10
65078;DHT22;51672;51.230;-2.322;2022-07-03T17:31:06;20.40;71.70
65078;DHT22;51672;51.230;-2.322;2022-07-03T17:34:52;20.20;72.30
65078;DHT22;51672;51.230;-2.322;2022-07-03T17:38:54;20.20;71.80
65078;DHT22;51672;51.230;-2.322;2022-07-03T17:46:58;19.90;72.00
65078;DHT22;51672;51.230;-2.322;2022-07-03T18:04:06;19.30;72.60
65078;DHT22;51672;51.230;-2.322;2022-07-03T18:08:11;19.20;73.40
65078;DHT22;51672;51.230;-2.322;2022-07-03T18:12:01;19.20;73.20
65078;DHT22;51672;51.230;-2.322;2022-07-03T18:16:12;19.10;73.70
65078;DHT22;51672;51.230;-2.322;2022-07-03T18:28:28;18.80;74.40
65078;DHT22;51672;51.230;-2.322;2022-07-03T18:32:17;18.80;75.50
65078;DHT22;51672;51.230;-2.322;2022-07-03T18:36:19;18.70;75.40
65078;DHT22;51672;51.230;-2.322;2022-07-03T18:40:10;18.60;76.30
65078;DHT22;51672;51.230;-2.322;2022-07-03T18:43:56;18.50;76.70
65078;DHT22;51672;51.230;-2.322;2022-07-03T18:47:39;18.50;77.40
65078;DHT22;51672;51.230;-2.322;2022-07-03T19:00:02;18.20;78.10
65078;DHT22;51672;51.230;-2.322;2022-07-03T19:12:12;17.90;80.00
65078;DHT22;51672;51.230;-2.322;2022-07-03T19:20:15;17.70;81.80
65078;DHT22;51672;51.230;-2.322;2022-07-03T19:24:05;17.60;82.30
65078;DHT22;51672;51.230;-2.322;2022-07-03T19:31:33;17.40;83.60
65078;DHT22;51672;51.230;-2.322;2022-07-03T19:35:22;17.30;84.30
65078;DHT22;51672;51.230;-2.322;2022-07-03T19:39:08;17.20;84.60
65078;DHT22;51672;51.230;-2.322;2022-07-03T19:42:50;17.10;85.60
65078;DHT22;51672;51.230;-2.322;2022-07-03T19:46:38;17.00;86.80
65078;DHT22;51672;51.230;-2.322;2022-07-03T19:50:39;16.90;86.90
65078;DHT22;51672;51.230;-2.322;2022-07-03T19:54:29;16.80;87.70
65078;DHT22;51672;51.230;-2.322;2022-07-03T20:02:01;16.60;89.20
65078;DHT22;51672;51.230;-2.322;2022-07-03T20:06:11;16.40;89.60
65078;DHT22;51672;51.230;-2.322;2022-07-03T20:09:54;16.30;89.30
65078;DHT22;51672;51.230;-2.322;2022-07-03T20:13:39;16.20;90.50
65078;DHT22;51672;51.230;-2.322;2022-07-03T20:21:08;16.00;91.30
65078;DHT22;51672;51.230;-2.322;2022-07-03T20:24:56;15.80;91.30
65078;DHT22;51672;51.230;-2.322;2022-07-03T20:28:57;15.70;91.50
65078;DHT22;51672;51.230;-2.322;2022-07-03T20:32:48;15.60;91.80
65078;DHT22;51672;51.230;-2.322;2022-07-03T20:36:31;15.50;92.00
65078;DHT22;51672;51.230;-2.322;2022-07-03T20:40:13;15.40;92.60
65078;DHT22;51672;51.230;-2.322;2022-07-03T20:43:55;15.30;92.80
65078;DHT22;51672;51.230;-2.322;2022-07-03T20:47:38;15.20;93.30
65078;DHT22;51672;51.230;-2.322;2022-07-03T20:51:21;15.10;93.70
65078;DHT22;51672;51.230;-2.322;2022-07-03T20:55:03;15.00;94.10
65078;DHT22;51672;51.230;-2.322;2022-07-03T20:58:45;14.90;94.50
65078;DHT22;51672;51.230;-2.322;2022-07-03T21:02:27;14.80;94.80
65078;DHT22;51672;51.230;-2.322;2022-07-03T21:06:09;14.70;95.00
65078;DHT22;51672;51.230;-2.322;2022-07-03T21:10:03;14.60;95.30
65078;DHT22;51672;51.230;-2.322;2022-07-03T21:13:47;14.50;95.60
65078;DHT22;51672;51.230;-2.322;2022-07-03T21:17:29;14.40;95.70
65078;DHT22;51672;51.230;-2.322;2022-07-03T21:21:11;14.40;95.90
65078;DHT22;51672;51.230;-2.322;2022-07-03T21:24:53;14.30;96.20
65078;DHT22;51672;51.230;-2.322;2022-07-03T21:28:36;14.20;96.10
65078;DHT22;51672;51.230;-2.322;2022-07-03T21:32:18;14.10;96.20
65078;DHT22;51672;51.230;-2.322;2022-07-03T21:36:00;14.00;96.60
65078;DHT22;51672;51.230;-2.322;2022-07-03T21:39:41;13.90;96.80
65078;DHT22;51672;51.230;-2.322;2022-07-03T21:43:23;13.80;96.90
65078;DHT22;51672;51.230;-2.322;2022-07-03T21:47:05;13.70;97.00
65078;DHT22;51672;51.230;-2.322;2022-07-03T21:50:48;13.60;97.00
65078;DHT22;51672;51.230;-2.322;2022-07-03T21:54:30;13.50;97.00
65078;DHT22;51672;51.230;-2.322;2022-07-03T21:58:12;13.40;97.40
65078;DHT22;51672;51.230;-2.322;2022-07-03T22:01:54;13.30;97.60
65078;DHT22;51672;51.230;-2.322;2022-07-03T22:05:36;13.30;97.90
65078;DHT22;51672;51.230;-2.322;2022-07-03T22:09:18;13.20;98.00
65078;DHT22;51672;51.230;-2.322;2022-07-03T22:13:20;13.10;98.20
65078;DHT22;51672;51.230;-2.322;2022-07-03T22:17:02;13.00;98.20
65078;DHT22;51672;51.230;-2.322;2022-07-03T22:20:44;13.00;98.40
65078;DHT22;51672;51.230;-2.322;2022-07-03T22:24:26;12.90;98.30
65078;DHT22;51672;51.230;-2.322;2022-07-03T22:28:08;12.80;98.50
65078;DHT22;51672;51.230;-2.322;2022-07-03T22:31:50;12.80;98.70
65078;DHT22;51672;51.230;-2.322;2022-07-03T22:35:35;12.70;98.80
65078;DHT22;51672;51.230;-2.322;2022-07-03T22:39:18;12.70;98.90
65078;DHT22;51672;51.230;-2.322;2022-07-03T22:43:03;12.60;99.10
65078;DHT22;51672;51.230;-2.322;2022-07-03T22:46:46;12.60;99.20
65078;DHT22;51672;51.230;-2.322;2022-07-03T22:50:28;12.50;99.10
65078;DHT22;51672;51.230;-2.322;2022-07-03T22:54:10;12.50;99.10
65078;DHT22;51672;51.230;-2.322;2022-07-03T22:57:52;12.40;99.20
65078;DHT22;51672;51.230;-2.322;2022-07-03T23:01:35;12.30;99.40
65078;DHT22;51672;51.230;-2.322;2022-07-03T23:05:17;12.30;99.40
65078;DHT22;51672;51.230;-2.322;2022-07-03T23:09:00;12.30;99.40
65078;DHT22;51672;51.230;-2.322;2022-07-03T23:12:41;12.20;99.30
65078;DHT22;51672;51.230;-2.322;2022-07-03T23:16:24;12.10;99.30
65078;DHT22;51672;51.230;-2.322;2022-07-03T23:20:07;12.00;99.50
65078;DHT22;51672;51.230;-2.322;2022-07-03T23:23:50;12.00;99.60
65078;DHT22;51672;51.230;-2.322;2022-07-03T23:27:32;11.90;99.80
65078;DHT22;51672;51.230;-2.322;2022-07-03T23:31:14;11.90;99.80
65078;DHT22;51672;51.230;-2.322;2022-07-03T23:34:56;11.80;99.80
65078;DHT22;51672;51.230;-2.322;2022-07-03T23:38:38;11.80;99.90
65078;DHT22;51672;51.230;-2.322;2022-07-03T23:42:20;11.80;99.90
65078;DHT22;51672;51.230;-2.322;2022-07-03T23:46:02;11.70;99.90
65078;DHT22;51672;51.230;-2.322;2022-07-03T23:49:44;11.70;99.90
65078;DHT22;51672;51.230;-2.322;2022-07-03T23:53:44;11.60;99.90
65078;DHT22;51672;51.230;-2.322;2022-07-03T23:57:26;11.60;99.90
